Terminal Aerodrome Forecast
Issued by NWS Duluth, MN

Home | Current Version | Previous Version | Text Only | Print | Product List | Glossary On
Versions: 1 2 3 4 5 6 7 8 9 10 11 12 13 14 15 16 17 18 19 20 21 22 23 24 25 26 27 28 29 30 31 32 33 34 35 36 37 38 39 40 41 42 43 44 45 46
000
FTUS43 KDLH 190100 AAC
TAFDLH
TAF AMD
KDLH 190101Z 1901/1924 12005KT 1/4SM -TSRA FG BKN002 BKN016
      OVC045CB
     FM190200 VRB03KT P6SM VCTS SCT014 BKN045CB
      TEMPO 1902/1905 -TSRA BKN050CB
     FM190500 VRB03KT 1 1/2SM -DZ BR OVC003
     FM191600 VRB03KT P6SM OVC045
     FM191900 VRB04KT P6SM VCSH OVC035=

USA.gov is the U.S. government's official web portal to all federal, state and local government web resources and services.